createdAt,value
2018-11-12T00:00:43.544Z,33.90
2018-11-12T00:06:12.832Z,35.35
2018-11-12T00:11:42.196Z,35.30
2018-11-12T00:17:11.499Z,41.30
2018-11-12T00:22:40.744Z,39.40
2018-11-12T00:28:10.059Z,32.48
2018-11-12T00:33:39.417Z,29.32
2018-11-12T00:39:11.212Z,31.95
2018-11-12T00:44:40.432Z,25.65
2018-11-12T00:50:11.132Z,29.87
2018-11-12T00:55:40.508Z,30.82
2018-11-12T01:01:09.829Z,29.10
2018-11-12T01:06:39.044Z,27.22
2018-11-12T01:12:09.095Z,27.65
2018-11-12T01:17:39.063Z,32.40
2018-11-12T01:23:08.525Z,31.70
2018-11-12T01:28:37.794Z,25.23
2018-11-12T01:34:07.225Z,29.63
2018-11-12T01:39:36.480Z,31.62
2018-11-12T01:45:11.225Z,26.77
2018-11-12T01:50:40.509Z,30.45
2018-11-12T01:56:09.816Z,28.55
2018-11-12T02:01:39.207Z,22.85
2018-11-12T02:07:08.568Z,26.65
2018-11-12T02:12:38.240Z,27.80
2018-11-12T02:18:07.604Z,27.60
2018-11-12T02:23:37.128Z,25.08
2018-11-12T02:29:06.862Z,24.18
2018-11-12T02:34:36.101Z,22.35
2018-11-12T02:40:06.465Z,24.82
2018-11-12T02:45:35.733Z,22.90
2018-11-12T02:51:06.695Z,18.30
2018-11-12T02:56:36.068Z,25.25
2018-11-12T03:02:05.556Z,18.55
2018-11-12T03:07:34.969Z,21.05
2018-11-12T03:13:04.186Z,21.65
2018-11-12T03:18:33.499Z,21.42
2018-11-12T03:24:02.780Z,22.60
2018-11-12T03:29:32.096Z,22.42
2018-11-12T03:35:01.319Z,24.87
2018-11-12T03:40:30.879Z,21.90
2018-11-12T03:46:00.170Z,18.95
2018-11-12T03:51:29.422Z,20.23
2018-11-12T03:56:58.676Z,19.67
2018-11-12T04:02:27.917Z,19.10
2018-11-12T04:07:57.355Z,19.92
2018-11-12T04:13:26.601Z,17.85
2018-11-12T04:18:55.896Z,17.77
2018-11-12T04:24:25.245Z,18.07
2018-11-12T04:29:54.522Z,15.60
2018-11-12T04:35:23.843Z,17.55
2018-11-12T04:40:53.104Z,15.18
2018-11-12T04:46:22.433Z,15.20
2018-11-12T04:51:51.693Z,15.10
2018-11-12T04:57:21.009Z,15.53
2018-11-12T05:02:50.492Z,17.48
2018-11-12T05:08:19.793Z,14.33
2018-11-12T05:13:49.040Z,13.10
2018-11-12T05:19:18.251Z,14.90
2018-11-12T05:24:47.477Z,11.93
2018-11-12T05:30:20.068Z,12.37
2018-11-12T05:35:49.292Z,11.22
2018-11-12T05:41:18.524Z,12.40
2018-11-12T05:46:48.798Z,10.32
2018-11-12T05:52:18.088Z,10.15
2018-11-12T05:57:48.597Z,8.10
2018-11-12T06:03:18.885Z,9.70
2018-11-12T06:08:48.172Z,11.20
2018-11-12T06:14:17.588Z,9.18
2018-11-12T06:19:46.814Z,9.28
2018-11-12T06:25:17.634Z,7.42
2018-11-12T06:30:46.936Z,9.55
2018-11-12T06:36:16.174Z,8.33
2018-11-12T06:41:45.424Z,9.23
2018-11-12T06:47:14.685Z,8.48
2018-11-12T06:52:43.976Z,8.88
2018-11-12T06:58:13.184Z,4.70
2018-11-12T07:03:42.400Z,4.65
2018-11-12T07:09:13.121Z,6.75
2018-11-12T07:14:42.353Z,4.12
2018-11-12T07:20:14.673Z,5.78
2018-11-12T07:25:43.890Z,4.45
2018-11-12T07:31:13.187Z,4.22
2018-11-12T07:36:42.333Z,5.50
2018-11-12T07:42:11.697Z,6.33
2018-11-12T07:47:41.824Z,4.20
2018-11-12T07:53:11.104Z,6.85
2018-11-12T07:58:40.420Z,3.87
2018-11-12T08:04:09.732Z,5.67
2018-11-12T08:09:39.019Z,4.67
2018-11-12T08:15:09.664Z,6.40
2018-11-12T08:20:38.908Z,3.90
2018-11-12T08:26:08.162Z,4.00
2018-11-12T08:31:37.396Z,3.77
2018-11-12T08:37:07.245Z,5.92
2018-11-12T08:42:36.523Z,5.97
2018-11-12T08:48:06.028Z,6.10
2018-11-12T08:53:35.284Z,5.33
2018-11-12T08:59:04.577Z,5.37
2018-11-12T09:04:33.792Z,4.00
2018-11-12T09:10:03.063Z,4.70
2018-11-12T09:15:32.449Z,6.55
2018-11-12T09:21:01.722Z,8.08
2018-11-12T09:26:31.120Z,5.67
2018-11-12T09:32:00.395Z,3.98
2018-11-12T09:37:29.735Z,9.30
2018-11-12T09:42:58.978Z,4.28
2018-11-12T09:48:29.114Z,4.15
2018-11-12T09:53:58.390Z,4.08
2018-11-12T09:59:27.659Z,4.60
2018-11-12T10:04:58.195Z,4.00
2018-11-12T10:10:41.622Z,3.87
2018-11-12T10:16:11.496Z,4.50
2018-11-12T10:21:37.549Z,4.30
2018-11-12T10:27:07.155Z,3.95
2018-11-12T10:32:36.368Z,3.00
2018-11-12T10:38:06.020Z,4.92
2018-11-12T10:43:35.316Z,3.90
2018-11-12T10:49:04.503Z,5.97
2018-11-12T10:54:33.825Z,4.00
2018-11-12T11:00:03.116Z,4.15
2018-11-12T11:05:32.608Z,6.83
2018-11-12T11:11:02.068Z,3.30
2018-11-12T11:16:31.354Z,4.87
2018-11-12T11:22:00.632Z,3.98
2018-11-12T11:27:29.936Z,3.92
2018-11-12T11:32:59.164Z,4.33
2018-11-12T11:38:28.421Z,5.92
2018-11-12T11:43:57.708Z,5.28
2018-11-12T11:49:27.923Z,2.52
2018-11-12T11:54:57.156Z,3.50
2018-11-12T12:00:27.880Z,3.33
2018-11-12T12:05:57.265Z,2.20
2018-11-12T12:11:27.108Z,3.45
2018-11-12T12:16:56.529Z,2.65
2018-11-12T12:22:25.769Z,4.45
2018-11-12T12:27:55.068Z,4.33
2018-11-12T12:33:24.285Z,5.65
2018-11-12T12:38:53.735Z,4.78
2018-11-12T12:44:23.159Z,3.75
2018-11-12T12:49:52.453Z,9.45
2018-11-12T12:55:21.908Z,9.53
2018-11-12T13:00:51.133Z,5.75
2018-11-12T13:06:20.511Z,6.15
2018-11-12T13:11:49.762Z,5.17
2018-11-12T13:17:19.096Z,4.42
2018-11-12T13:22:48.900Z,3.72
2018-11-12T13:28:19.231Z,3.33
2018-11-12T13:33:48.676Z,19.27
2018-11-12T13:39:18.047Z,2.75
2018-11-12T13:44:47.336Z,2.90
2018-11-12T13:50:18.151Z,6.83
2018-11-12T13:55:47.529Z,7.95
2018-11-12T14:01:16.832Z,9.78
2018-11-12T14:06:46.205Z,14.50
2018-11-12T14:12:15.549Z,10.93
2018-11-12T14:17:46.251Z,12.28
2018-11-12T14:23:15.666Z,12.82
2018-11-12T14:28:45.114Z,11.53
2018-11-12T14:34:14.317Z,16.00
2018-11-12T14:39:43.647Z,12.28
2018-11-12T14:45:15.247Z,11.88
2018-11-12T14:50:44.493Z,14.20
2018-11-12T14:56:13.752Z,15.30
2018-11-12T15:01:43.039Z,18.85
2018-11-12T15:07:12.412Z,21.07
2018-11-12T15:12:42.189Z,20.27
2018-11-12T15:18:11.510Z,22.98
2018-11-12T15:23:40.844Z,26.25
2018-11-12T15:29:10.129Z,24.82
2018-11-12T15:34:39.581Z,24.75
2018-11-12T15:40:10.021Z,23.05
2018-11-12T15:45:39.422Z,27.10
2018-11-12T15:51:08.832Z,29.02
2018-11-12T15:56:38.215Z,24.65
2018-11-12T16:02:07.560Z,27.10
2018-11-12T16:07:36.914Z,29.15
2018-11-12T16:13:06.316Z,27.93
2018-11-12T16:18:35.642Z,27.67
2018-11-12T16:24:05.331Z,28.57
2018-11-12T16:29:34.574Z,31.07
2018-11-12T16:35:04.317Z,37.05
2018-11-12T16:40:33.749Z,34.20
2018-11-12T16:46:03.134Z,46.53
2018-11-12T16:51:32.503Z,38.60
2018-11-12T16:57:01.992Z,30.72
2018-11-12T17:02:31.269Z,35.98
2018-11-12T17:08:00.601Z,36.13
2018-11-12T17:13:29.893Z,38.33
2018-11-12T17:18:59.316Z,34.13
2018-11-12T17:24:28.701Z,29.23
2018-11-12T17:29:58.255Z,35.13
2018-11-12T17:35:27.636Z,36.08
2018-11-12T17:40:57.397Z,33.50
2018-11-12T17:46:26.710Z,38.00
2018-11-12T17:51:56.065Z,35.17
2018-11-12T17:57:25.428Z,35.13
2018-11-12T18:02:54.804Z,42.67
2018-11-12T18:08:24.098Z,36.85
2018-11-12T18:13:53.526Z,44.58
2018-11-12T18:19:22.767Z,36.65
2018-11-12T18:24:52.138Z,37.48
2018-11-12T18:30:23.099Z,45.43
2018-11-12T18:35:52.360Z,50.43
2018-11-12T18:41:21.758Z,40.67
2018-11-12T18:46:51.164Z,47.58
2018-11-12T18:52:20.533Z,40.12
2018-11-12T18:57:51.186Z,43.85
2018-11-12T19:03:21.047Z,55.75
2018-11-12T19:08:50.420Z,61.15
2018-11-12T19:14:19.725Z,48.23
2018-11-12T19:19:49.031Z,46.18
2018-11-12T19:25:18.368Z,40.55
2018-11-12T19:30:47.708Z,34.55
2018-11-12T19:36:16.981Z,36.95
2018-11-12T19:41:49.239Z,38.67
2018-11-12T19:47:18.690Z,45.67
2018-11-12T19:52:49.103Z,44.08
2018-11-12T19:58:18.440Z,52.40
2018-11-12T20:03:47.809Z,48.15
2018-11-12T20:09:17.116Z,43.95
2018-11-12T20:14:46.564Z,67.78
2018-11-12T20:20:18.793Z,43.30
2018-11-12T20:25:48.403Z,51.33
2018-11-12T20:31:18.758Z,41.10
2018-11-12T20:36:48.117Z,35.23
2018-11-12T20:42:17.602Z,37.88
2018-11-12T20:47:49.383Z,35.15
2018-11-12T20:53:19.606Z,32.45
2018-11-12T20:58:49.011Z,37.63
2018-11-12T21:04:18.396Z,33.18
2018-11-12T21:09:47.752Z,24.43
2018-11-12T21:15:19.362Z,32.45
2018-11-12T21:20:48.828Z,26.73
2018-11-12T21:26:18.179Z,26.40
2018-11-12T21:31:49.017Z,23.57
2018-11-12T21:37:18.439Z,26.50
2018-11-12T21:42:48.010Z,26.33
2018-11-12T21:48:17.540Z,25.80
2018-11-12T21:53:47.000Z,21.62
2018-11-12T21:59:16.382Z,24.57
2018-11-12T22:04:46.004Z,20.80
2018-11-12T22:10:16.040Z,16.60
2018-11-12T22:15:45.372Z,12.47
2018-11-12T22:21:14.703Z,16.52
2018-11-12T22:26:44.046Z,19.15
2018-11-12T22:32:13.328Z,15.63
2018-11-12T22:37:43.262Z,17.85
2018-11-12T22:43:12.496Z,16.62
2018-11-12T22:48:41.700Z,19.57
2018-11-12T22:54:11.020Z,17.67
2018-11-12T22:59:40.233Z,15.78
2018-11-12T23:05:09.418Z,15.48
2018-11-12T23:10:39.748Z,16.62
2018-11-12T23:16:09.043Z,15.88
2018-11-12T23:21:38.886Z,19.92
2018-11-12T23:27:08.344Z,11.30
2018-11-12T23:32:37.649Z,10.38
2018-11-12T23:38:06.896Z,8.05
2018-11-12T23:43:36.300Z,8.45
2018-11-12T23:49:05.796Z,9.55
2018-11-12T23:54:35.037Z,10.63
